Time;durP1;ratioP1;P1;durP2;ratioP2;P2;SDS_P1;SDS_P2;PMS_P1;PMS_P2;Temp;Humidity;BMP_temperature;BMP_pressure;BME280_temperature;BME280_humidity;BME280_pressure;Samples;Min_cycle;Max_cycle;Signal;HPM_P1;HPM_P2
2023/04/15 00:02:17;;;;;;;15.13;7.03;;;5.00;99.90;;;;;;5056676;28;20048;-21
2023/04/15 00:04:46;;;;;;;16.90;7.90;;;5.00;99.90;;;;;;5038809;28;20088;-21
2023/04/15 00:07:13;;;;;;;13.55;7.10;;;5.00;99.90;;;;;;5056859;28;20080;-21
2023/04/15 00:09:41;;;;;;;17.63;8.40;;;5.00;99.90;;;;;;5038966;28;20132;-21
2023/04/15 00:12:06;;;;;;;16.85;7.53;;;5.00;99.90;;;;;;5056487;28;20099;-21
2023/04/15 00:14:35;;;;;;;14.95;7.68;;;5.00;99.90;;;;;;5039149;28;20056;-21
2023/04/15 00:17:02;;;;;;;15.80;8.43;;;5.00;99.90;;;;;;5056665;28;20486;-21
2023/04/15 00:19:28;;;;;;;17.08;8.23;;;5.00;99.90;;;;;;5039596;28;20056;-22
2023/04/15 00:21:54;;;;;;;18.17;8.75;;;5.00;99.90;;;;;;5056307;28;20049;-21
2023/04/15 00:24:20;;;;;;;18.20;8.95;;;5.00;99.90;;;;;;5056193;28;20163;-21
2023/04/15 00:26:46;;;;;;;21.58;10.25;;;5.00;99.90;;;;;;5038461;28;20081;-21
2023/04/15 00:29:12;;;;;;;18.15;9.30;;;4.90;99.90;;;;;;5056203;28;20102;-21
2023/04/15 00:31:38;;;;;;;21.38;9.27;;;5.00;99.90;;;;;;5056108;28;20497;-21
2023/04/15 00:34:03;;;;;;;20.73;9.88;;;4.90;99.90;;;;;;5056630;28;20084;-21
2023/04/15 00:36:30;;;;;;;17.88;9.13;;;4.90;99.90;;;;;;5056488;28;20064;-21
2023/04/15 00:38:56;;;;;;;19.88;10.00;;;4.80;99.90;;;;;;5055719;28;20045;-21
2023/04/15 00:41:22;;;;;;;18.58;10.63;;;4.70;99.90;;;;;;5038226;28;20049;-21
2023/04/15 00:43:48;;;;;;;14.95;9.85;;;4.70;99.90;;;;;;5037636;28;20045;-21
2023/04/15 00:46:16;;;;;;;19.50;10.00;;;4.70;99.90;;;;;;5055882;28;20057;-21
2023/04/15 00:48:42;;;;;;;22.92;10.80;;;4.80;99.90;;;;;;5038675;28;20124;-21
2023/04/15 00:51:08;;;;;;;22.42;11.10;;;4.80;99.90;;;;;;5055739;28;20049;-21
2023/04/15 00:53:34;;;;;;;21.27;10.13;;;4.80;99.90;;;;;;5055966;28;20044;-21
2023/04/15 00:56:00;;;;;;;18.13;10.45;;;4.70;99.90;;;;;;5038696;28;20134;-21
2023/04/15 00:58:26;;;;;;;20.85;10.90;;;4.70;99.90;;;;;;5055669;28;20045;-21
2023/04/15 01:00:56;;;;;;;20.30;12.55;;;4.70;99.90;;;;;;5056449;28;20076;-21
2023/04/15 01:03:22;;;;;;;21.67;12.27;;;4.70;99.90;;;;;;5055495;28;20045;-21
2023/04/15 01:05:48;;;;;;;20.92;12.32;;;4.70;99.90;;;;;;5038736;28;20045;-21
2023/04/15 01:08:14;;;;;;;23.58;12.20;;;4.70;99.90;;;;;;5055525;28;20053;-21
2023/04/15 01:10:40;;;;;;;19.85;12.60;;;4.70;99.90;;;;;;5037906;28;20057;-21
2023/04/15 01:13:06;;;;;;;26.23;12.43;;;4.80;99.90;;;;;;5055911;28;20132;-22
2023/04/15 01:15:34;;;;;;;23.33;12.18;;;4.70;99.90;;;;;;5037731;28;20127;-22
2023/04/15 01:18:01;;;;;;;22.05;12.90;;;4.70;99.90;;;;;;5055274;28;20049;-22
2023/04/15 01:20:28;;;;;;;31.17;12.25;;;4.70;99.90;;;;;;5055289;28;20107;-22
2023/04/15 01:22:54;;;;;;;21.50;13.63;;;4.70;99.90;;;;;;5055038;28;20131;-22
2023/04/15 01:25:31;;;;;;;25.55;13.45;;;4.70;99.90;;;;;;5021316;28;20045;-23
2023/04/15 01:27:58;;;;;;;24.55;12.55;;;4.70;99.90;;;;;;5055352;28;20049;-22
2023/04/15 01:30:25;;;;;;;23.15;13.75;;;4.80;99.90;;;;;;5055066;28;20055;-22
2023/04/15 01:32:51;;;;;;;25.13;13.75;;;4.60;99.90;;;;;;5037147;28;20126;-23
2023/04/15 01:35:17;;;;;;;22.73;12.93;;;4.60;99.90;;;;;;5054775;28;20430;-23
2023/04/15 01:37:44;;;;;;;23.65;13.02;;;4.60;99.90;;;;;;5054956;28;20052;-23
2023/04/15 01:40:10;;;;;;;23.20;14.07;;;4.50;99.90;;;;;;5037127;28;20412;-23
2023/04/15 01:42:36;;;;;;;23.20;14.02;;;4.40;99.90;;;;;;5054826;28;20049;-22
2023/04/15 01:45:02;;;;;;;26.33;14.60;;;4.50;99.90;;;;;;5054687;28;20045;-23
2023/04/15 01:47:28;;;;;;;24.10;14.10;;;4.50;99.90;;;;;;5054762;28;20106;-22
2023/04/15 01:49:54;;;;;;;31.98;14.70;;;4.50;99.90;;;;;;5053805;28;20048;-22
2023/04/15 01:52:20;;;;;;;23.88;15.90;;;4.40;99.90;;;;;;5054481;28;20186;-22
2023/04/15 01:54:46;;;;;;;23.33;14.57;;;4.50;99.90;;;;;;5036843;28;20554;-22
2023/04/15 01:57:12;;;;;;;25.50;15.32;;;4.50;99.90;;;;;;5054499;28;20045;-22
2023/04/15 01:59:37;;;;;;;24.50;14.98;;;4.50;99.90;;;;;;5054479;28;20045;-22
2023/04/15 02:02:04;;;;;;;26.20;14.65;;;4.40;99.90;;;;;;5054684;28;20132;-22
2023/04/15 02:04:30;;;;;;;27.17;15.55;;;4.40;99.90;;;;;;5055089;28;20044;-22
2023/04/15 02:06:56;;;;;;;29.00;15.68;;;4.30;99.90;;;;;;5036707;28;20107;-22
2023/04/15 02:09:22;;;;;;;26.05;16.05;;;4.30;99.90;;;;;;5054303;28;20045;-23
2023/04/15 02:11:47;;;;;;;26.95;16.35;;;4.30;99.90;;;;;;5036660;28;20081;-22
2023/04/15 02:14:13;;;;;;;24.83;16.00;;;4.20;99.90;;;;;;5054172;28;20056;-22
2023/04/15 02:16:39;;;;;;;29.40;16.87;;;4.10;99.90;;;;;;5054157;28;20056;-22
2023/04/15 02:19:05;;;;;;;27.52;17.17;;;4.00;99.90;;;;;;5054086;28;20087;-22
2023/04/15 02:21:30;;;;;;;27.77;16.83;;;4.00;99.90;;;;;;5054157;28;20072;-22
2023/04/15 02:23:56;;;;;;;28.67;17.48;;;3.90;99.90;;;;;;5053942;28;20041;-22
2023/04/15 02:26:23;;;;;;;29.08;16.95;;;3.90;99.90;;;;;;5036323;28;20052;-22
2023/04/15 02:28:52;;;;;;;28.58;16.60;;;3.90;99.90;;;;;;5036198;28;20048;-22
2023/04/15 02:31:18;;;;;;;30.35;17.08;;;3.80;99.90;;;;;;5036384;28;20127;-22
2023/04/15 02:33:44;;;;;;;30.20;16.70;;;3.80;99.90;;;;;;5054169;28;20427;-22
2023/04/15 02:36:11;;;;;;;33.03;18.80;;;3.80;99.90;;;;;;5053503;28;20387;-22
2023/04/15 02:38:39;;;;;;;31.93;17.13;;;3.70;99.90;;;;;;5054347;28;20364;-22
2023/04/15 02:41:04;;;;;;;35.53;17.10;;;3.70;99.90;;;;;;5053759;28;20087;-22
2023/04/15 02:43:30;;;;;;;31.23;18.80;;;3.70;99.90;;;;;;5054208;28;20138;-22
2023/04/15 02:45:56;;;;;;;31.70;17.53;;;3.70;99.90;;;;;;5054513;28;20041;-22
2023/04/15 02:48:22;;;;;;;33.70;18.42;;;3.70;99.90;;;;;;5053658;28;20045;-22
2023/04/15 02:50:47;;;;;;;30.53;18.03;;;3.70;99.90;;;;;;5053662;28;20052;-22
2023/04/15 02:53:13;;;;;;;30.77;18.05;;;3.70;99.90;;;;;;5053681;28;20047;-22
2023/04/15 02:55:39;;;;;;;33.97;18.87;;;3.70;99.90;;;;;;5054199;28;20045;-22
2023/04/15 02:58:05;;;;;;;36.07;19.00;;;3.70;99.90;;;;;;5035803;28;20049;-22
2023/04/15 03:00:31;;;;;;;34.50;19.87;;;3.80;99.90;;;;;;5054076;28;20045;-22
2023/04/15 03:03:05;;;;;;;35.97;20.83;;;3.80;99.90;;;;;;5053340;28;20063;-22
2023/04/15 03:05:31;;;;;;;32.58;19.13;;;3.70;99.90;;;;;;5036771;28;20052;-22
2023/04/15 03:07:56;;;;;;;33.87;18.57;;;3.70;99.90;;;;;;5035847;28;20045;-22
2023/04/15 03:10:22;;;;;;;31.85;19.60;;;3.70;99.90;;;;;;5053480;28;20098;-22
2023/04/15 03:12:48;;;;;;;35.27;19.87;;;3.80;99.90;;;;;;5053404;28;20045;-22
2023/04/15 03:15:15;;;;;;;37.80;21.38;;;3.70;99.90;;;;;;5053375;28;20073;-22
2023/04/15 03:17:41;;;;;;;37.60;20.88;;;3.70;99.90;;;;;;5053939;28;20064;-22
2023/04/15 03:20:08;;;;;;;39.50;20.50;;;3.70;99.90;;;;;;5053370;28;20041;-22
2023/04/15 03:22:34;;;;;;;34.22;18.95;;;3.80;99.90;;;;;;5053333;28;20114;-22
2023/04/15 03:25:00;;;;;;;33.20;19.60;;;3.80;99.90;;;;;;5019056;28;20049;-23
2023/04/15 03:27:26;;;;;;;33.43;21.00;;;3.80;99.90;;;;;;5053188;28;20091;-22
2023/04/15 03:29:51;;;;;;;40.97;20.67;;;3.80;99.90;;;;;;5053774;28;20045;-22
2023/04/15 03:32:17;;;;;;;34.53;21.08;;;3.90;99.90;;;;;;5036248;28;20045;-22
2023/04/15 03:34:43;;;;;;;33.23;18.93;;;3.90;99.90;;;;;;5052835;28;20049;-22
2023/04/15 03:37:09;;;;;;;36.30;20.93;;;3.80;99.90;;;;;;5053453;28;20099;-22
2023/04/15 03:39:34;;;;;;;35.10;19.80;;;3.90;99.90;;;;;;5053155;28;20132;-22
2023/04/15 03:42:00;;;;;;;37.60;20.63;;;3.80;99.90;;;;;;5035408;28;20049;-22
2023/04/15 03:44:26;;;;;;;34.13;20.37;;;3.80;99.90;;;;;;5053216;28;20470;-22
2023/04/15 03:46:53;;;;;;;36.07;21.73;;;3.80;99.90;;;;;;5053120;28;20045;-22
2023/04/15 03:49:19;;;;;;;39.20;20.97;;;3.80;99.90;;;;;;5053050;28;20037;-22
2023/04/15 03:51:45;;;;;;;36.00;19.60;;;3.80;99.90;;;;;;5053040;28;20049;-22
2023/04/15 03:54:14;;;;;;;34.72;20.67;;;3.80;99.90;;;;;;5053015;28;20368;-22
2023/04/15 03:56:39;;;;;;;32.83;20.27;;;4.20;99.90;;;;;;5035448;28;20483;-22
2023/04/15 03:59:05;;;;;;;40.20;21.30;;;3.70;99.90;;;;;;5052970;28;20134;-22
2023/04/15 04:01:31;;;;;;;31.53;19.37;;;3.70;99.90;;;;;;5035247;28;20146;-22
2023/04/15 04:03:57;;;;;;;38.93;20.87;;;3.70;99.90;;;;;;5052916;28;20501;-22
2023/04/15 04:06:23;;;;;;;37.33;21.50;;;3.70;99.90;;;;;;5035298;28;20056;-22
2023/04/15 04:08:49;;;;;;;36.97;22.07;;;3.90;99.90;;;;;;5052908;28;20041;-22
2023/04/15 04:11:15;;;;;;;37.60;21.55;;;3.80;99.90;;;;;;5053403;28;20045;-22
2023/04/15 04:13:40;;;;;;;39.00;24.13;;;3.80;99.90;;;;;;5054388;28;20041;-22
2023/04/15 04:16:06;;;;;;;39.03;22.40;;;3.80;99.90;;;;;;5056478;28;20041;-22
2023/04/15 04:18:32;;;;;;;39.90;22.97;;;4.00;99.90;;;;;;5056450;28;20080;-22
2023/04/15 04:20:58;;;;;;;40.92;22.92;;;3.80;99.90;;;;;;5056387;28;20568;-22
2023/04/15 04:23:24;;;;;;;35.93;22.00;;;3.70;99.90;;;;;;5056804;28;20045;-22
2023/04/15 04:25:50;;;;;;;41.57;22.33;;;3.50;99.90;;;;;;5056274;28;20052;-22
2023/04/15 04:28:16;;;;;;;41.15;24.00;;;3.50;99.90;;;;;;5056142;28;20041;-22
2023/04/15 04:30:41;;;;;;;38.57;23.03;;;3.40;99.90;;;;;;5056223;28;20088;-22
2023/04/15 04:33:07;;;;;;;40.97;22.07;;;3.30;99.90;;;;;;5056154;28;20119;-22
2023/04/15 04:35:36;;;;;;;37.90;21.08;;;3.30;99.90;;;;;;5038251;28;20491;-22
2023/04/15 04:38:02;;;;;;;37.43;21.90;;;3.20;99.90;;;;;;5056628;28;20064;-22
2023/04/15 04:40:28;;;;;;;46.80;24.80;;;3.10;99.90;;;;;;5055778;28;20049;-22
2023/04/15 04:42:54;;;;;;;41.67;23.33;;;3.10;99.90;;;;;;5056142;28;20376;-22
2023/04/15 04:45:20;;;;;;;44.53;22.67;;;3.00;99.90;;;;;;5038201;28;20123;-23
2023/04/15 04:47:46;;;;;;;42.90;22.87;;;3.00;99.90;;;;;;5038599;28;20037;-22
2023/04/15 04:50:12;;;;;;;43.43;23.07;;;2.90;99.90;;;;;;5055840;28;20413;-22
2023/04/15 04:52:38;;;;;;;51.57;22.53;;;2.90;99.90;;;;;;5055764;28;20040;-22
2023/04/15 04:55:04;;;;;;;45.00;23.10;;;2.70;99.90;;;;;;5055693;28;20052;-22
2023/04/15 04:57:30;;;;;;;41.37;22.03;;;2.60;99.90;;;;;;5037847;28;20513;-22
2023/04/15 04:59:56;;;;;;;47.03;24.40;;;2.40;99.90;;;;;;5037983;28;20080;-22
2023/04/15 05:02:22;;;;;;;51.80;23.50;;;2.40;99.90;;;;;;5056394;28;20048;-22
2023/04/15 05:04:49;;;;;;;44.73;23.00;;;2.40;99.90;;;;;;5055466;28;20463;-22
2023/04/15 05:07:14;;;;;;;49.23;23.03;;;2.50;99.90;;;;;;5055804;28;20106;-22
2023/04/15 05:09:40;;;;;;;45.73;20.87;;;2.40;99.90;;;;;;5037918;28;20452;-22
2023/04/15 05:12:07;;;;;;;45.67;22.07;;;2.30;99.90;;;;;;5055421;28;20079;-22
2023/04/15 05:14:33;;;;;;;43.50;21.63;;;2.20;99.90;;;;;;5038619;28;20056;-22
2023/04/15 05:16:59;;;;;;;42.73;20.43;;;2.10;99.90;;;;;;5038528;28;20530;-22
2023/04/15 05:19:25;;;;;;;41.57;21.83;;;2.20;99.90;;;;;;5055265;28;20052;-22
2023/04/15 05:21:51;;;;;;;45.93;22.37;;;2.20;99.90;;;;;;5055205;28;20049;-22
2023/04/15 05:24:17;;;;;;;46.60;22.47;;;2.20;99.90;;;;;;5054935;28;20041;-22
2023/04/15 05:26:42;;;;;;;45.10;21.93;;;2.30;99.90;;;;;;5054168;28;20403;-22
2023/04/15 05:29:08;;;;;;;49.33;23.93;;;2.40;99.90;;;;;;5055620;28;20452;-22
2023/04/15 05:31:34;;;;;;;46.03;22.30;;;2.50;99.90;;;;;;5055021;28;20049;-22
2023/04/15 05:34:00;;;;;;;44.33;22.33;;;2.50;99.90;;;;;;5055240;28;20044;-22
2023/04/15 05:36:26;;;;;;;47.63;23.37;;;2.60;99.90;;;;;;5020624;28;20053;-22
2023/04/15 05:38:52;;;;;;;40.20;20.20;;;2.60;99.90;;;;;;5054915;28;20057;-22
2023/04/15 05:41:18;;;;;;;42.37;21.00;;;2.70;99.90;;;;;;5054828;28;20522;-22
2023/04/15 05:43:43;;;;;;;44.43;22.03;;;2.80;99.90;;;;;;5054695;28;20131;-22
2023/04/15 05:46:09;;;;;;;39.17;21.07;;;3.10;99.90;;;;;;5020560;28;20080;-22
2023/04/15 05:48:35;;;;;;;39.47;21.23;;;3.40;99.90;;;;;;5037165;28;20076;-22
2023/04/15 05:51:01;;;;;;;43.35;21.42;;;3.60;99.90;;;;;;5054662;28;20045;-22
2023/04/15 05:53:26;;;;;;;39.75;21.15;;;3.90;99.90;;;;;;5054553;28;20052;-22
2023/04/15 05:55:52;;;;;;;46.80;23.10;;;4.10;99.90;;;;;;5036841;28;20052;-22
2023/04/15 05:58:18;;;;;;;43.50;23.13;;;4.30;99.90;;;;;;5036850;28;20049;-22
2023/04/15 06:00:45;;;;;;;41.13;22.43;;;4.40;99.90;;;;;;5036748;28;20048;-22
2023/04/15 06:03:11;;;;;;;41.78;21.55;;;4.60;99.90;;;;;;5036477;28;20505;-22
2023/04/15 06:05:37;;;;;;;40.63;22.38;;;4.80;99.90;;;;;;5036743;28;20410;-22
2023/04/15 06:08:03;;;;;;;38.97;21.35;;;5.00;99.90;;;;;;5054361;28;20449;-22
2023/04/15 06:10:29;;;;;;;42.55;21.30;;;5.00;99.90;;;;;;5054337;28;20041;-22
2023/04/15 06:12:55;;;;;;;37.70;20.88;;;5.10;99.90;;;;;;5054863;28;20049;-22
2023/04/15 06:15:21;;;;;;;36.17;21.00;;;5.10;99.90;;;;;;5054973;28;20051;-22
2023/04/15 06:17:46;;;;;;;35.20;20.73;;;5.30;99.90;;;;;;5054702;28;20383;-22
2023/04/15 06:20:13;;;;;;;36.83;20.88;;;5.30;99.90;;;;;;5036438;28;20548;-22
2023/04/15 06:22:38;;;;;;;38.35;20.30;;;5.40;99.90;;;;;;5054035;28;20045;-22
2023/04/15 06:25:06;;;;;;;36.30;20.23;;;5.60;99.90;;;;;;5036208;28;20041;-22
2023/04/15 06:27:32;;;;;;;38.38;20.35;;;5.70;99.90;;;;;;5036136;28;20045;-22
2023/04/15 06:29:58;;;;;;;36.45;20.38;;;5.90;99.90;;;;;;5053953;28;20045;-22
2023/04/15 06:32:24;;;;;;;33.97;19.92;;;6.10;99.90;;;;;;5053971;28;20052;-22
2023/04/15 06:34:49;;;;;;;31.15;18.60;;;6.30;99.90;;;;;;5053879;28;20041;-22
2023/04/15 06:37:15;;;;;;;34.97;20.63;;;6.40;99.90;;;;;;5054127;28;20057;-22
2023/04/15 06:39:44;;;;;;;37.92;20.08;;;6.60;99.90;;;;;;5036059;28;20450;-22
2023/04/15 06:42:10;;;;;;;31.90;18.92;;;6.80;99.90;;;;;;5037017;28;20045;-22
2023/04/15 06:44:36;;;;;;;31.70;18.17;;;7.00;99.90;;;;;;5053730;28;20084;-23
2023/04/15 06:47:02;;;;;;;32.33;18.23;;;7.30;99.90;;;;;;5054248;28;20080;-22
2023/04/15 06:49:28;;;;;;;26.02;16.33;;;7.50;99.90;;;;;;5053692;28;20045;-22
2023/04/15 06:51:54;;;;;;;22.95;15.00;;;7.70;99.90;;;;;;5053585;28;20391;-22
2023/04/15 06:54:20;;;;;;;22.83;13.73;;;7.90;99.90;;;;;;5053627;28;20047;-22
2023/04/15 06:56:46;;;;;;;20.13;12.68;;;8.10;99.90;;;;;;5054159;28;20052;-23
2023/04/15 06:59:13;;;;;;;15.93;11.07;;;8.30;99.90;;;;;;5053470;28;20045;-22
2023/04/15 07:01:40;;;;;;;17.15;11.32;;;8.50;99.90;;;;;;5053421;28;20055;-23
2023/04/15 07:04:06;;;;;;;14.45;10.02;;;8.60;99.90;;;;;;5053285;28;20483;-23
2023/04/15 07:06:32;;;;;;;19.38;9.52;;;8.70;99.90;;;;;;5035623;28;20047;-23
2023/04/15 07:08:58;;;;;;;13.65;8.93;;;8.70;99.90;;;;;;5053349;28;20085;-23
2023/04/15 07:11:27;;;;;;;12.90;7.65;;;8.70;99.90;;;;;;5035875;28;20513;-23
2023/04/15 07:13:53;;;;;;;13.23;6.65;;;8.60;99.90;;;;;;5035677;28;20045;-23
2023/04/15 07:16:19;;;;;;;10.50;7.15;;;8.60;99.90;;;;;;5053250;28;20045;-23
2023/04/15 07:18:44;;;;;;;10.57;6.20;;;8.60;99.90;;;;;;5053392;28;20057;-23
2023/04/15 07:21:10;;;;;;;10.73;6.35;;;8.60;99.90;;;;;;5053145;28;20487;-23
2023/04/15 07:23:36;;;;;;;11.23;7.10;;;8.60;99.90;;;;;;5053373;28;20041;-23
2023/04/15 07:26:02;;;;;;;13.07;6.78;;;8.60;99.90;;;;;;5053643;28;20049;-23
2023/04/15 07:28:28;;;;;;;11.88;6.35;;;8.80;99.90;;;;;;5053048;28;20045;-23
2023/04/15 07:30:56;;;;;;;12.43;6.95;;;8.80;99.90;;;;;;5035471;28;20048;-23
2023/04/15 07:33:23;;;;;;;11.05;6.40;;;8.90;99.20;;;;;;5035916;28;20067;-23
2023/04/15 07:35:48;;;;;;;10.95;6.35;;;9.00;99.90;;;;;;5035122;28;20049;-22
2023/04/15 07:38:14;;;;;;;13.50;7.30;;;9.00;99.90;;;;;;5052772;28;20140;-23
2023/04/15 07:40:41;;;;;;;13.35;7.82;;;9.00;76.20;;;;;;5053089;28;20045;-23
2023/04/15 07:43:07;;;;;;;12.25;6.70;;;9.10;90.20;;;;;;5035429;28;20057;-23
2023/04/15 07:45:34;;;;;;;11.85;6.57;;;9.20;38.60;;;;;;5053032;28;20470;-23
2023/04/15 07:48:03;;;;;;;11.57;7.18;;;9.20;30.10;;;;;;5053663;28;20448;-23
2023/04/15 07:50:28;;;;;;;10.15;6.95;;;9.20;7.10;;;;;;5056939;28;20077;-23
2023/04/15 07:52:54;;;;;;;9.65;6.45;;;9.30;24.10;;;;;;5056549;28;20470;-23
2023/04/15 07:55:22;;;;;;;9.60;6.43;;;9.30;1.00;;;;;;5039256;28;20127;-23
2023/04/15 07:57:48;;;;;;;11.93;6.80;;;9.20;1.00;;;;;;5056883;28;20053;-23
2023/04/15 08:00:15;;;;;;;9.85;6.18;;;9.20;1.00;;;;;;5039112;28;20566;-23
2023/04/15 08:02:47;;;;;;;13.27;6.30;;;9.10;1.00;;;;;;5056743;28;20052;-23
2023/04/15 08:05:13;;;;;;;9.55;6.55;;;9.00;1.00;;;;;;5056690;28;20545;-23
2023/04/15 08:07:39;;;;;;;12.95;6.55;;;9.10;1.00;;;;;;5038991;28;20118;-23
2023/04/15 08:10:06;;;;;;;11.75;5.75;;;9.10;1.00;;;;;;5056890;28;20479;-22
2023/04/15 08:12:31;;;;;;;8.48;5.97;;;9.00;1.00;;;;;;5057118;28;20053;-23
2023/04/15 08:14:57;;;;;;;8.40;4.95;;;9.00;1.00;;;;;;5038975;28;20110;-23
2023/04/15 08:17:23;;;;;;;13.65;5.57;;;9.00;99.90;;;;;;5056468;28;20376;-23
2023/04/15 08:19:49;;;;;;;8.23;4.50;;;8.90;1.00;;;;;;5038863;28;20111;-23
2023/04/15 08:22:15;;;;;;;7.90;4.70;;;8.80;1.00;;;;;;5056367;28;20491;-23
2023/04/15 08:24:41;;;;;;;10.15;5.07;;;8.70;1.00;;;;;;5038425;28;20045;-23
2023/04/15 08:27:07;;;;;;;10.32;4.78;;;8.70;1.00;;;;;;5055896;28;20066;-23
2023/04/15 08:29:33;;;;;;;6.35;4.28;;;8.80;1.00;;;;;;5056255;28;20053;-23
2023/04/15 08:32:02;;;;;;;7.25;3.53;;;8.80;99.90;;;;;;5021803;28;20072;-23
2023/04/15 08:34:28;;;;;;;8.18;3.85;;;8.80;99.90;;;;;;5039079;28;20037;-23
2023/04/15 08:36:54;;;;;;;9.23;3.88;;;8.80;99.90;;;;;;5056324;28;20513;-23
2023/04/15 08:39:20;;;;;;;7.47;4.22;;;8.80;99.90;;;;;;5038284;28;20045;-23
2023/04/15 08:41:49;;;;;;;5.82;2.90;;;8.90;99.90;;;;;;5038264;28;20200;-23
2023/04/15 08:44:17;;;;;;;5.72;2.95;;;9.00;99.90;;;;;;5038101;28;20132;-23
2023/04/15 08:46:43;;;;;;;6.50;2.42;;;9.30;99.90;;;;;;5055927;28;20049;-23
2023/04/15 08:49:13;;;;;;;8.15;2.50;;;9.50;99.90;;;;;;5037976;28;20575;-23
2023/04/15 08:51:40;;;;;;;6.40;2.03;;;9.60;64.10;;;;;;5056132;28;20045;-23
2023/04/15 08:54:07;;;;;;;7.28;2.88;;;9.60;1.00;;;;;;5055734;28;20052;-23
2023/04/15 08:56:34;;;;;;;8.20;3.38;;;9.50;1.00;;;;;;5055402;28;20372;-23
2023/04/15 08:59:00;;;;;;;5.70;2.88;;;9.40;1.00;;;;;;5021176;28;20399;-23
2023/04/15 09:01:26;;;;;;;6.22;3.13;;;9.20;1.00;;;;;;5055683;28;20120;-23
2023/04/15 09:03:55;;;;;;;5.50;3.13;;;9.20;47.70;;;;;;5055491;28;20033;-23
2023/04/15 09:06:22;;;;;;;5.13;2.67;;;9.10;91.40;;;;;;5021391;28;20056;-23
2023/04/15 09:08:49;;;;;;;4.05;2.50;;;9.00;83.10;;;;;;5056057;28;20049;-23
2023/04/15 09:11:16;;;;;;;3.97;2.67;;;8.90;99.90;;;;;;5056036;28;20372;-23
2023/04/15 09:13:43;;;;;;;7.22;2.53;;;8.90;99.90;;;;;;5055400;28;20076;-23
2023/04/15 09:16:09;;;;;;;6.25;3.00;;;9.00;99.90;;;;;;5055694;28;20110;-23
2023/04/15 09:18:36;;;;;;;7.53;2.65;;;9.00;99.90;;;;;;5037765;28;20387;-23
2023/04/15 09:21:10;;;;;;;7.45;2.20;;;9.10;99.90;;;;;;5037683;28;20084;-23
2023/04/15 09:23:40;;;;;;;6.35;1.88;;;9.20;99.90;;;;;;5054981;28;20460;-23
2023/04/15 09:26:07;;;;;;;4.75;1.50;;;9.30;56.70;;;;;;5037588;28;20052;-23
2023/04/15 09:28:34;;;;;;;4.18;1.30;;;9.60;1.00;;;;;;5037252;28;20049;-23
2023/04/15 09:31:01;;;;;;;6.22;1.38;;;;;;;;;;5055566;28;20045;-23
2023/04/15 09:33:29;;;;;;;3.10;1.05;;;10.90;99.90;;;;;;5055765;28;20090;-23
2023/04/15 09:35:58;;;;;;;2.38;0.80;;;11.30;1.00;;;;;;5055732;28;20352;-23
2023/04/15 09:38:24;;;;;;;2.05;0.68;;;11.20;1.00;;;;;;5037598;28;20129;-23
2023/04/15 09:40:50;;;;;;;4.47;1.00;;;11.00;99.90;;;;;;5054968;28;20080;-23
2023/04/15 09:43:16;;;;;;;3.78;0.93;;;10.70;1.00;;;;;;5054443;28;20098;-24
2023/04/15 09:45:52;;;;;;;3.80;0.93;;;10.50;1.00;;;;;;5054868;28;20051;-23
2023/04/15 09:48:25;;;;;;;2.65;0.80;;;10.20;1.00;;;;;;5055342;28;20092;-23
2023/04/15 09:50:56;;;;;;;3.10;0.70;;;10.30;1.00;;;;;;5055400;28;20049;-23
2023/04/15 09:53:23;;;;;;;2.95;0.80;;;10.30;1.00;;;;;;5055285;28;20433;-24
2023/04/15 09:55:57;;;;;;;3.85;1.23;;;10.30;1.00;;;;;;5037056;28;20052;-23
2023/04/15 09:58:26;;;;;;;1.88;0.57;;;10.40;1.00;;;;;;5055399;28;20064;-23
2023/04/15 10:00:53;;;;;;;3.42;1.00;;;10.40;1.00;;;;;;5054501;28;20048;-23
2023/04/15 10:03:22;;;;;;;2.67;0.90;;;10.50;99.90;;;;;;5036325;28;20098;-23
2023/04/15 10:05:50;;;;;;;2.42;0.93;;;10.60;1.00;;;;;;5054483;28;20059;-23
2023/04/15 10:08:22;;;;;;;2.95;1.10;;;10.80;1.00;;;;;;5054829;28;20136;-24
2023/04/15 10:10:48;;;;;;;1.48;0.85;;;10.80;1.00;;;;;;5054002;28;20106;-23
2023/04/15 10:13:18;;;;;;;2.20;1.00;;;10.60;1.00;;;;;;5054571;28;20175;-23
2023/04/15 10:15:56;;;;;;;1.75;0.82;;;10.40;99.90;;;;;;5053891;28;20048;-24
2023/04/15 10:18:24;;;;;;;3.40;1.27;;;10.40;1.00;;;;;;5036294;28;20048;-24
2023/04/15 10:20:50;;;;;;;5.88;1.30;;;10.30;1.00;;;;;;5036511;28;20114;-23
2023/04/15 10:23:17;;;;;;;3.65;1.10;;;10.30;1.00;;;;;;5054589;28;20041;-23
2023/04/15 10:25:45;;;;;;;2.85;0.75;;;10.40;1.00;;;;;;5054025;28;20128;-23
2023/04/15 10:28:12;;;;;;;1.65;0.60;;;10.40;99.90;;;;;;5036277;28;20048;-24
2023/04/15 10:30:38;;;;;;;2.20;0.80;;;10.30;1.00;;;;;;5053913;28;20041;-24
2023/04/15 10:33:05;;;;;;;4.32;1.00;;;10.30;99.90;;;;;;5053862;28;20127;-23
2023/04/15 10:35:33;;;;;;;5.43;1.33;;;10.30;1.00;;;;;;5020059;28;20418;-23
2023/04/15 10:37:59;;;;;;;2.38;0.95;;;10.20;1.00;;;;;;5037155;28;20057;-23
2023/04/15 10:40:26;;;;;;;5.80;1.50;;;10.20;1.00;;;;;;5053720;28;20051;-24
2023/04/15 10:42:57;;;;;;;6.95;1.40;;;10.10;1.00;;;;;;5053710;28;20037;-23
2023/04/15 10:45:26;;;;;;;4.35;0.98;;;10.10;1.00;;;;;;5053775;28;20089;-23
2023/04/15 10:47:56;;;;;;;7.65;1.30;;;10.00;1.00;;;;;;5036018;28;20408;-23
2023/04/15 10:50:24;;;;;;;2.75;1.00;;;10.10;28.70;;;;;;5053667;28;20044;-23
2023/04/15 10:52:51;;;;;;;3.00;1.15;;;10.00;1.00;;;;;;5053556;28;20119;-23
2023/04/15 10:55:22;;;;;;;2.47;1.27;;;10.00;1.00;;;;;;5054374;28;20063;-23
2023/04/15 10:57:59;;;;;;;5.28;1.42;;;10.10;40.30;;;;;;5053239;28;20511;-23
2023/04/15 11:00:29;;;;;;;3.63;1.25;;;10.30;99.90;;;;;;5036579;28;20577;-24
2023/04/15 11:02:57;;;;;;;7.00;1.50;;;10.40;98.50;;;;;;5035994;28;20522;-24
2023/04/15 11:05:38;;;;;;;5.70;1.40;;;10.50;73.00;;;;;;5053407;28;20552;-24
2023/04/15 11:08:04;;;;;;;4.68;1.27;;;10.40;1.00;;;;;;5053358;28;20055;-23
2023/04/15 11:10:30;;;;;;;4.53;1.20;;;10.40;1.00;;;;;;5053427;28;20045;-23
2023/04/15 11:13:03;;;;;;;6.28;1.42;;;10.20;1.00;;;;;;5053394;28;20041;-23
2023/04/15 11:15:37;;;;;;;4.75;1.30;;;10.10;89.30;;;;;;5035531;28;20045;-24
2023/04/15 11:18:12;;;;;;;6.35;1.50;;;10.10;99.90;;;;;;5053961;28;20041;-23
2023/04/15 11:20:39;;;;;;;3.83;1.27;;;10.00;99.90;;;;;;5053093;28;20487;-23
2023/04/15 11:23:05;;;;;;;4.00;1.17;;;9.90;99.90;;;;;;5055274;28;20140;-23
2023/04/15 11:25:33;;;;;;;6.78;1.20;;;9.70;99.90;;;;;;5057049;28;20492;-23
2023/04/15 11:28:00;;;;;;;5.45;1.52;;;9.90;99.90;;;;;;5057326;28;20052;-24
2023/04/15 11:30:28;;;;;;;4.70;1.42;;;10.10;99.90;;;;;;5039564;28;20076;-24
2023/04/15 11:32:57;;;;;;;7.30;1.30;;;10.20;1.00;;;;;;5057255;28;20060;-24
2023/04/15 11:35:23;;;;;;;4.95;1.52;;;10.10;1.00;;;;;;5057039;28;20052;-23
2023/04/15 11:37:49;;;;;;;8.35;1.83;;;10.00;9.90;;;;;;5057714;28;20139;-23
2023/04/15 11:40:16;;;;;;;5.45;1.00;;;9.90;82.80;;;;;;5040263;28;20132;-24
2023/04/15 11:42:43;;;;;;;4.22;1.25;;;10.00;99.90;;;;;;5040315;28;20049;-23
2023/04/15 11:45:14;;;;;;;5.13;1.10;;;10.20;82.90;;;;;;5057006;28;20388;-24
2023/04/15 11:47:42;;;;;;;6.85;1.25;;;10.20;1.00;;;;;;5057572;28;20382;-24
2023/04/15 11:50:15;;;;;;;3.15;1.08;;;10.20;1.00;;;;;;5039349;28;20475;-24
2023/04/15 11:52:58;;;;;;;6.10;1.08;;;10.40;1.00;;;;;;5056967;28;20131;-23
2023/04/15 11:55:25;;;;;;;5.90;1.13;;;10.40;1.00;;;;;;5040513;28;20395;-24
2023/04/15 11:58:11;;;;;;;4.75;1.38;;;10.40;1.00;;;;;;5057159;28;20060;-24
2023/04/15 12:00:39;;;;;;;8.32;1.38;;;10.40;38.10;;;;;;5056489;28;20052;-23
2023/04/15 12:03:11;;;;;;;8.32;1.73;;;10.50;99.90;;;;;;5056611;28;20049;-24
2023/04/15 12:06:17;;;;;;;4.75;0.80;;;10.40;99.90;;;;;;5056753;28;20491;-23
2023/04/15 12:09:05;;;;;;;7.50;1.27;;;10.10;1.00;;;;;;5056635;28;20048;-24
2023/04/15 12:11:44;;;;;;;7.30;1.52;;;9.90;1.00;;;;;;5056892;28;20080;-24
2023/04/15 12:14:14;;;;;;;7.88;1.58;;;9.90;90.10;;;;;;5056607;28;20192;-24
2023/04/15 12:16:48;;;;;;;4.93;1.33;;;10.00;99.90;;;;;;5056477;28;20479;-23
2023/04/15 12:19:16;;;;;;;11.63;2.40;;;9.90;99.90;;;;;;5056416;28;20055;-24
2023/04/15 12:21:46;;;;;;;12.82;1.88;;;9.80;99.90;;;;;;5056414;28;20049;-24
2023/04/15 12:24:12;;;;;;;7.40;1.02;;;9.90;99.90;;;;;;5056358;28;20155;-24
2023/04/15 12:26:45;;;;;;;7.95;1.58;;;9.80;99.90;;;;;;5056249;28;20056;-24
2023/04/15 12:29:12;;;;;;;6.57;1.08;;;9.90;99.90;;;;;;5022822;28;20379;-23
2023/04/15 12:31:53;;;;;;;7.22;1.13;;;9.90;99.90;;;;;;5056160;28;20045;-23
2023/04/15 12:34:32;;;;;;;6.43;0.80;;;9.90;99.90;;;;;;5055536;28;20496;-24
2023/04/15 12:37:00;;;;;;;4.80;0.80;;;9.80;99.90;;;;;;5038354;28;20060;-24
2023/04/15 12:39:28;;;;;;;8.15;1.30;;;9.90;99.90;;;;;;5055673;28;20498;-24
2023/04/15 12:41:54;;;;;;;10.05;1.73;;;9.90;99.90;;;;;;5056015;28;20052;-24
2023/04/15 12:44:22;;;;;;;16.10;2.10;;;9.90;99.90;;;;;;5056213;28;20491;-24
2023/04/15 12:46:49;;;;;;;8.85;2.17;;;10.00;99.90;;;;;;5038660;28;20048;-24